sensor_id;sensor_type;location;lat;lon;timestamp;pressure;altitude;pressure_sealevel;temperature
84354;BMP280;74538;43.522;1.516;2024-01-06T00:00:49;99288.16;;;19.50
84354;BMP280;74538;43.522;1.516;2024-01-06T00:03:15;99288.16;;;19.50
84354;BMP280;74538;43.522;1.516;2024-01-06T00:05:40;99276.41;;;19.48
84354;BMP280;74538;43.522;1.516;2024-01-06T00:08:06;99284.94;;;19.46
84354;BMP280;74538;43.522;1.516;2024-01-06T00:10:31;99284.94;;;19.46
84354;BMP280;74538;43.522;1.516;2024-01-06T00:12:57;99282.69;;;19.45
84354;BMP280;74538;43.522;1.516;2024-01-06T00:15:23;99288.53;;;19.43
84354;BMP280;74538;43.522;1.516;2024-01-06T00:17:48;99281.69;;;19.42
84354;BMP280;74538;43.522;1.516;2024-01-06T00:20:14;99282.88;;;19.41
84354;BMP280;74538;43.522;1.516;2024-01-06T00:22:39;99282.59;;;19.39
84354;BMP280;74538;43.522;1.516;2024-01-06T00:25:05;99286.53;;;19.38
84354;BMP280;74538;43.522;1.516;2024-01-06T00:27:30;99296.50;;;19.38
84354;BMP280;74538;43.522;1.516;2024-01-06T00:29:56;99293.53;;;19.36
84354;BMP280;74538;43.522;1.516;2024-01-06T00:32:21;99302.06;;;19.34
84354;BMP280;74538;43.522;1.516;2024-01-06T00:34:47;99305.97;;;19.33
84354;BMP280;74538;43.522;1.516;2024-01-06T00:37:13;99299.09;;;19.32
84354;BMP280;74538;43.522;1.516;2024-01-06T00:39:38;99300.31;;;19.31
84354;BMP280;74538;43.522;1.516;2024-01-06T00:42:04;99293.41;;;19.30
84354;BMP280;74538;43.522;1.516;2024-01-06T00:44:29;99302.69;;;19.29
84354;BMP280;74538;43.522;1.516;2024-01-06T00:46:55;99304.63;;;19.28
84354;BMP280;74538;43.522;1.516;2024-01-06T00:49:20;99303.16;;;19.27
84354;BMP280;74538;43.522;1.516;2024-01-06T00:51:45;99300.22;;;19.25
84354;BMP280;74538;43.522;1.516;2024-01-06T00:54:11;99304.09;;;19.24
84354;BMP280;74538;43.522;1.516;2024-01-06T00:56:37;99307.25;;;19.23
84354;BMP280;74538;43.522;1.516;2024-01-06T00:59:02;99304.56;;;19.23
84354;BMP280;74538;43.522;1.516;2024-01-06T01:01:28;99313.78;;;19.22
84354;BMP280;74538;43.522;1.516;2024-01-06T01:03:53;99305.47;;;19.20
84354;BMP280;74538;43.522;1.516;2024-01-06T01:06:18;99309.34;;;19.19
84354;BMP280;74538;43.522;1.516;2024-01-06T01:08:44;99303.69;;;19.17
84354;BMP280;74538;43.522;1.516;2024-01-06T01:11:10;99302.25;;;19.16
84354;BMP280;74538;43.522;1.516;2024-01-06T01:13:35;99305.34;;;19.14
84354;BMP280;74538;43.522;1.516;2024-01-06T01:16:01;99310.72;;;19.14
84354;BMP280;74538;43.522;1.516;2024-01-06T01:18:28;99308.50;;;19.13
84354;BMP280;74538;43.522;1.516;2024-01-06T01:20:53;99312.41;;;19.12
84354;BMP280;74538;43.522;1.516;2024-01-06T01:23:19;99310.94;;;19.11
84354;BMP280;74538;43.522;1.516;2024-01-06T01:25:44;99311.38;;;19.09
84354;BMP280;74538;43.522;1.516;2024-01-06T01:28:09;99302.59;;;19.09
84354;BMP280;74538;43.522;1.516;2024-01-06T01:30:35;99312.56;;;19.08
84354;BMP280;74538;43.522;1.516;2024-01-06T01:33:00;99314.97;;;19.06
84354;BMP280;74538;43.522;1.516;2024-01-06T01:35:26;99319.59;;;19.06
84354;BMP280;74538;43.522;1.516;2024-01-06T01:37:51;99319.31;;;19.04
84354;BMP280;74538;43.522;1.516;2024-01-06T01:40:16;99315.88;;;19.03
84354;BMP280;74538;43.522;1.516;2024-01-06T01:42:43;99329.78;;;19.02
84354;BMP280;74538;43.522;1.516;2024-01-06T01:45:09;99334.41;;;19.01
84354;BMP280;74538;43.522;1.516;2024-01-06T01:47:34;99332.16;;;19.00
84354;BMP280;74538;43.522;1.516;2024-01-06T01:50:00;99337.28;;;18.98
84354;BMP280;74538;43.522;1.516;2024-01-06T01:52:26;99345.31;;;18.98
84354;BMP280;74538;43.522;1.516;2024-01-06T01:54:52;99345.31;;;18.98
84354;BMP280;74538;43.522;1.516;2024-01-06T01:57:18;99351.59;;;18.94
84354;BMP280;74538;43.522;1.516;2024-01-06T01:59:44;99350.84;;;18.94
84354;BMP280;74538;43.522;1.516;2024-01-06T02:02:09;99351.34;;;18.92
84354;BMP280;74538;43.522;1.516;2024-01-06T02:04:35;99364.75;;;18.92
84354;BMP280;74538;43.522;1.516;2024-01-06T02:07:00;99362.50;;;18.91
84354;BMP280;74538;43.522;1.516;2024-01-06T02:09:26;99352.97;;;18.90
84354;BMP280;74538;43.522;1.516;2024-01-06T02:11:57;99365.63;;;18.89
84354;BMP280;74538;43.522;1.516;2024-01-06T02:14:25;99368.06;;;18.87
84354;BMP280;74538;43.522;1.516;2024-01-06T02:16:51;99375.81;;;18.85
84354;BMP280;74538;43.522;1.516;2024-01-06T02:19:17;99371.94;;;18.86
84354;BMP280;74538;43.522;1.516;2024-01-06T02:21:44;99383.09;;;18.85
84354;BMP280;74538;43.522;1.516;2024-01-06T02:24:09;99380.91;;;18.83
84354;BMP280;74538;43.522;1.516;2024-01-06T02:26:35;99374.78;;;18.83
84354;BMP280;74538;43.522;1.516;2024-01-06T02:29:01;99380.59;;;18.81
84354;BMP280;74538;43.522;1.516;2024-01-06T02:31:27;99385.22;;;18.81
84354;BMP280;74538;43.522;1.516;2024-01-06T02:33:52;99393.75;;;18.79
84354;BMP280;74538;43.522;1.516;2024-01-06T02:36:18;99381.53;;;18.78
84354;BMP280;74538;43.522;1.516;2024-01-06T02:38:43;99386.91;;;18.78
84354;BMP280;74538;43.522;1.516;2024-01-06T02:41:09;99388.06;;;18.77
84354;BMP280;74538;43.522;1.516;2024-01-06T02:43:34;99387.78;;;18.75
84354;BMP280;74538;43.522;1.516;2024-01-06T02:45:59;99387.06;;;18.75
84354;BMP280;74538;43.522;1.516;2024-01-06T02:48:26;99386.31;;;18.74
84354;BMP280;74538;43.522;1.516;2024-01-06T02:50:51;99384.84;;;18.73
84354;BMP280;74538;43.522;1.516;2024-01-06T02:53:16;99381.88;;;18.71
84354;BMP280;74538;43.522;1.516;2024-01-06T02:55:42;99381.88;;;18.71
84354;BMP280;74538;43.522;1.516;2024-01-06T02:58:07;99378.13;;;18.69
84354;BMP280;74538;43.522;1.516;2024-01-06T03:00:33;99377.41;;;18.68
84354;BMP280;74538;43.522;1.516;2024-01-06T03:02:58;99382.03;;;18.68
84354;BMP280;74538;43.522;1.516;2024-01-06T03:05:23;99387.88;;;18.66
84354;BMP280;74538;43.522;1.516;2024-01-06T03:07:49;99391.75;;;18.65
84354;BMP280;74538;43.522;1.516;2024-01-06T03:10:14;99395.63;;;18.64
84354;BMP280;74538;43.522;1.516;2024-01-06T03:12:40;99401.00;;;18.64
84354;BMP280;74538;43.522;1.516;2024-01-06T03:15:05;99396.06;;;18.63
84354;BMP280;74538;43.522;1.516;2024-01-06T03:17:31;99400.66;;;18.62
84354;BMP280;74538;43.522;1.516;2024-01-06T03:19:57;99399.91;;;18.62
84354;BMP280;74538;43.522;1.516;2024-01-06T03:22:23;99395.03;;;18.60
84354;BMP280;74538;43.522;1.516;2024-01-06T03:24:48;99398.91;;;18.59
84354;BMP280;74538;43.522;1.516;2024-01-06T03:27:14;99402.78;;;18.58
84354;BMP280;74538;43.522;1.516;2024-01-06T03:29:39;99399.38;;;18.57
84354;BMP280;74538;43.522;1.516;2024-01-06T03:32:05;99400.59;;;18.56
84354;BMP280;74538;43.522;1.516;2024-01-06T03:34:31;99399.84;;;18.56
84354;BMP280;74538;43.522;1.516;2024-01-06T03:36:56;99403.72;;;18.55
84354;BMP280;74538;43.522;1.516;2024-01-06T03:39:22;99407.56;;;18.54
84354;BMP280;74538;43.522;1.516;2024-01-06T03:41:48;99410.69;;;18.52
84354;BMP280;74538;43.522;1.516;2024-01-06T03:44:14;99417.28;;;18.51
84354;BMP280;74538;43.522;1.516;2024-01-06T03:46:39;99403.13;;;18.51
84354;BMP280;74538;43.522;1.516;2024-01-06T03:49:04;99420.41;;;18.50
84354;BMP280;74538;43.522;1.516;2024-01-06T03:51:30;99417.44;;;18.48
84354;BMP280;74538;43.522;1.516;2024-01-06T03:53:55;99421.31;;;18.47
84354;BMP280;74538;43.522;1.516;2024-01-06T03:56:21;99420.56;;;18.46
84354;BMP280;74538;43.522;1.516;2024-01-06T03:58:46;99418.34;;;18.45
84354;BMP280;74538;43.522;1.516;2024-01-06T04:01:12;99428.31;;;18.44
84354;BMP280;74538;43.522;1.516;2024-01-06T04:03:38;99422.22;;;18.44
84354;BMP280;74538;43.522;1.516;2024-01-06T04:06:05;99420.75;;;18.43
84354;BMP280;74538;43.522;1.516;2024-01-06T04:08:31;99423.88;;;18.41
84354;BMP280;74538;43.522;1.516;2024-01-06T04:10:56;99424.31;;;18.40
84354;BMP280;74538;43.522;1.516;2024-01-06T04:13:22;99430.88;;;18.39
84354;BMP280;74538;43.522;1.516;2024-01-06T04:15:50;99426.72;;;18.38
84354;BMP280;74538;43.522;1.516;2024-01-06T04:18:15;99426.72;;;18.38
84354;BMP280;74538;43.522;1.516;2024-01-06T04:20:41;99427.91;;;18.37
84354;BMP280;74538;43.522;1.516;2024-01-06T04:23:06;99429.09;;;18.36
84354;BMP280;74538;43.522;1.516;2024-01-06T04:25:31;99428.34;;;18.35
84354;BMP280;74538;43.522;1.516;2024-01-06T04:27:57;99426.13;;;18.34
84354;BMP280;74538;43.522;1.516;2024-01-06T04:30:22;99419.31;;;18.33
84354;BMP280;74538;43.522;1.516;2024-01-06T04:32:49;99422.00;;;18.33
84354;BMP280;74538;43.522;1.516;2024-01-06T04:35:15;99420.47;;;18.32
84354;BMP280;74538;43.522;1.516;2024-01-06T04:37:40;99427.03;;;18.31
84354;BMP280;74538;43.522;1.516;2024-01-06T04:40:06;99422.84;;;18.30
84354;BMP280;74538;43.522;1.516;2024-01-06T04:42:33;99420.66;;;18.28
84354;BMP280;74538;43.522;1.516;2024-01-06T04:44:58;99427.94;;;18.28
84354;BMP280;74538;43.522;1.516;2024-01-06T04:47:24;99426.47;;;18.27
84354;BMP280;74538;43.522;1.516;2024-01-06T04:49:50;99431.50;;;18.24
84354;BMP280;74538;43.522;1.516;2024-01-06T04:52:15;99434.19;;;18.24
84354;BMP280;74538;43.522;1.516;2024-01-06T04:54:40;99430.03;;;18.23
84354;BMP280;74538;43.522;1.516;2024-01-06T04:57:06;99433.91;;;18.22
84354;BMP280;74538;43.522;1.516;2024-01-06T04:59:31;99433.91;;;18.22
84354;BMP280;74538;43.522;1.516;2024-01-06T05:01:57;99437.78;;;18.21
84354;BMP280;74538;43.522;1.516;2024-01-06T05:04:23;99436.28;;;18.20
84354;BMP280;74538;43.522;1.516;2024-01-06T05:06:49;99446.28;;;18.20
84354;BMP280;74538;43.522;1.516;2024-01-06T05:09:15;99445.25;;;18.17
84354;BMP280;74538;43.522;1.516;2024-01-06T05:11:43;99452.53;;;18.17
84354;BMP280;74538;43.522;1.516;2024-01-06T05:14:08;99455.66;;;18.15
84354;BMP280;74538;43.522;1.516;2024-01-06T05:16:34;99448.09;;;18.14
84354;BMP280;74538;43.522;1.516;2024-01-06T05:18:59;99460.28;;;18.15
84354;BMP280;74538;43.522;1.516;2024-01-06T05:21:25;99462.19;;;18.14
84354;BMP280;74538;43.522;1.516;2024-01-06T05:23:51;99466.84;;;18.14
84354;BMP280;74538;43.522;1.516;2024-01-06T05:26:16;99462.69;;;18.13
84354;BMP280;74538;43.522;1.516;2024-01-06T05:28:41;99464.63;;;18.12
84354;BMP280;74538;43.522;1.516;2024-01-06T05:31:07;99470.41;;;18.11
84354;BMP280;74538;43.522;1.516;2024-01-06T05:33:32;99457.47;;;18.09
84354;BMP280;74538;43.522;1.516;2024-01-06T05:35:58;99464.75;;;18.09
84354;BMP280;74538;43.522;1.516;2024-01-06T05:38:23;99472.06;;;18.08
84354;BMP280;74538;43.522;1.516;2024-01-06T05:40:49;99467.88;;;18.07
84354;BMP280;74538;43.522;1.516;2024-01-06T05:43:14;99469.81;;;18.07
84354;BMP280;74538;43.522;1.516;2024-01-06T05:45:39;99479.06;;;18.06
84354;BMP280;74538;43.522;1.516;2024-01-06T05:48:09;99474.16;;;18.04
84354;BMP280;74538;43.522;1.516;2024-01-06T05:50:36;99475.34;;;18.03
84354;BMP280;74538;43.522;1.516;2024-01-06T05:53:01;99479.97;;;18.03
84354;BMP280;74538;43.522;1.516;2024-01-06T05:55:26;99480.38;;;18.01
84354;BMP280;74538;43.522;1.516;2024-01-06T05:57:52;99486.94;;;18.00
84354;BMP280;74538;43.522;1.516;2024-01-06T06:00:17;99487.69;;;18.01
84354;BMP280;74538;43.522;1.516;2024-01-06T06:02:43;99489.63;;;18.00
84354;BMP280;74538;43.522;1.516;2024-01-06T06:05:08;99486.66;;;17.98
84354;BMP280;74538;43.522;1.516;2024-01-06T06:07:34;99493.22;;;17.97
84354;BMP280;74538;43.522;1.516;2024-01-06T06:10:08;99496.63;;;17.98
84354;BMP280;74538;43.522;1.516;2024-01-06T06:12:34;99502.44;;;17.96
84354;BMP280;74538;43.522;1.516;2024-01-06T06:14:59;99499.03;;;17.96
84354;BMP280;74538;43.522;1.516;2024-01-06T06:17:25;99504.81;;;17.94
84354;BMP280;74538;43.522;1.516;2024-01-06T06:19:51;99508.69;;;17.93
84354;BMP280;74538;43.522;1.516;2024-01-06T06:22:16;99504.50;;;17.92
84354;BMP280;74538;43.522;1.516;2024-01-06T06:24:41;99509.88;;;17.92
84354;BMP280;74538;43.522;1.516;2024-01-06T06:27:08;99505.72;;;17.91
84354;BMP280;74538;43.522;1.516;2024-01-06T06:29:33;99504.25;;;17.90
84354;BMP280;74538;43.522;1.516;2024-01-06T06:31:59;99510.78;;;17.89
84354;BMP280;74538;43.522;1.516;2024-01-06T06:34:25;99509.31;;;17.88
84354;BMP280;74538;43.522;1.516;2024-01-06T06:36:50;99515.81;;;17.87
84354;BMP280;74538;43.522;1.516;2024-01-06T06:39:15;99525.06;;;17.86
84354;BMP280;74538;43.522;1.516;2024-01-06T06:41:42;99524.34;;;17.85
84354;BMP280;74538;43.522;1.516;2024-01-06T06:44:08;99531.63;;;17.85
84354;BMP280;74538;43.522;1.516;2024-01-06T06:46:33;99534.31;;;17.85
84354;BMP280;74538;43.522;1.516;2024-01-06T06:48:59;99536.69;;;17.83
84354;BMP280;74538;43.522;1.516;2024-01-06T06:51:24;99535.19;;;17.82
84354;BMP280;74538;43.522;1.516;2024-01-06T06:53:52;99539.81;;;17.81
84354;BMP280;74538;43.522;1.516;2024-01-06T06:56:17;99544.41;;;17.81
84354;BMP280;74538;43.522;1.516;2024-01-06T06:58:43;99542.19;;;17.79
84354;BMP280;74538;43.522;1.516;2024-01-06T07:01:08;99541.44;;;17.79
84354;BMP280;74538;43.522;1.516;2024-01-06T07:03:34;99541.44;;;17.79
84354;BMP280;74538;43.522;1.516;2024-01-06T07:05:59;99553.34;;;17.78
84354;BMP280;74538;43.522;1.516;2024-01-06T07:08:24;99543.81;;;17.77
84354;BMP280;74538;43.522;1.516;2024-01-06T07:10:50;99549.16;;;17.77
84354;BMP280;74538;43.522;1.516;2024-01-06T07:13:15;99546.22;;;17.75
84354;BMP280;74538;43.522;1.516;2024-01-06T07:15:41;99548.13;;;17.74
84354;BMP280;74538;43.522;1.516;2024-01-06T07:18:07;99551.56;;;17.75
84354;BMP280;74538;43.522;1.516;2024-01-06T07:20:32;99547.06;;;17.72
84354;BMP280;74538;43.522;1.516;2024-01-06T07:22:57;99547.06;;;17.72
84354;BMP280;74538;43.522;1.516;2024-01-06T07:25:23;99549.00;;;17.71
84354;BMP280;74538;43.522;1.516;2024-01-06T07:27:48;99555.56;;;17.70
84354;BMP280;74538;43.522;1.516;2024-01-06T07:30:14;99557.50;;;17.70
84354;BMP280;74538;43.522;1.516;2024-01-06T07:32:39;99564.03;;;17.69
84354;BMP280;74538;43.522;1.516;2024-01-06T07:35:04;99567.91;;;17.68
84354;BMP280;74538;43.522;1.516;2024-01-06T07:37:30;99567.16;;;17.67
84354;BMP280;74538;43.522;1.516;2024-01-06T07:39:55;99570.31;;;17.66
84354;BMP280;74538;43.522;1.516;2024-01-06T07:42:21;99564.94;;;17.66
84354;BMP280;74538;43.522;1.516;2024-01-06T07:44:47;99574.16;;;17.65
84354;BMP280;74538;43.522;1.516;2024-01-06T07:47:12;99583.38;;;17.64
84354;BMP280;74538;43.522;1.516;2024-01-06T07:49:38;99588.72;;;17.64
84354;BMP280;74538;43.522;1.516;2024-01-06T07:52:03;99587.97;;;17.63
84354;BMP280;74538;43.522;1.516;2024-01-06T07:54:29;99584.28;;;17.61
84354;BMP280;74538;43.522;1.516;2024-01-06T07:56:55;99592.31;;;17.61
84354;BMP280;74538;43.522;1.516;2024-01-06T07:59:20;99594.25;;;17.60
84354;BMP280;74538;43.522;1.516;2024-01-06T08:01:46;99590.81;;;17.60
84354;BMP280;74538;43.522;1.516;2024-01-06T08:04:11;99592.00;;;17.59
84354;BMP280;74538;43.522;1.516;2024-01-06T08:06:36;99593.19;;;17.58
84354;BMP280;74538;43.522;1.516;2024-01-06T08:09:02;99595.13;;;17.57
84354;BMP280;74538;43.522;1.516;2024-01-06T08:11:28;99597.03;;;17.57
84354;BMP280;74538;43.522;1.516;2024-01-06T08:13:54;99597.50;;;17.55
84354;BMP280;74538;43.522;1.516;2024-01-06T08:16:19;99596.75;;;17.55
84354;BMP280;74538;43.522;1.516;2024-01-06T08:18:45;99610.13;;;17.55
84354;BMP280;74538;43.522;1.516;2024-01-06T08:21:11;99608.63;;;17.54
84354;BMP280;74538;43.522;1.516;2024-01-06T08:23:36;99606.41;;;17.52
84354;BMP280;74538;43.522;1.516;2024-01-06T08:26:02;99610.56;;;17.53
84354;BMP280;74538;43.522;1.516;2024-01-06T08:28:27;99619.78;;;17.52
84354;BMP280;74538;43.522;1.516;2024-01-06T08:30:53;99624.41;;;17.51
84354;BMP280;74538;43.522;1.516;2024-01-06T08:33:18;99627.53;;;17.50
84354;BMP280;74538;43.522;1.516;2024-01-06T08:35:44;99628.28;;;17.50
84354;BMP280;74538;43.522;1.516;2024-01-06T08:38:09;99622.94;;;17.50
84354;BMP280;74538;43.522;1.516;2024-01-06T08:40:35;99628.69;;;17.49
84354;BMP280;74538;43.522;1.516;2024-01-06T08:43:01;99630.63;;;17.48
84354;BMP280;74538;43.522;1.516;2024-01-06T08:45:27;99629.88;;;17.48
84354;BMP280;74538;43.522;1.516;2024-01-06T08:47:52;99623.03;;;17.47
84354;BMP280;74538;43.522;1.516;2024-01-06T08:50:18;99638.34;;;17.46
84354;BMP280;74538;43.522;1.516;2024-01-06T08:52:43;99637.63;;;17.46
84354;BMP280;74538;43.522;1.516;2024-01-06T08:55:09;99636.88;;;17.45
84354;BMP280;74538;43.522;1.516;2024-01-06T08:57:34;99638.06;;;17.44
84354;BMP280;74538;43.522;1.516;2024-01-06T09:00:00;99640.00;;;17.44
84354;BMP280;74538;43.522;1.516;2024-01-06T09:02:25;99638.50;;;17.43
84354;BMP280;74538;43.522;1.516;2024-01-06T09:04:50;99645.78;;;17.42
84354;BMP280;74538;43.522;1.516;2024-01-06T09:07:16;99655.00;;;17.41
84354;BMP280;74538;43.522;1.516;2024-01-06T09:09:43;99649.66;;;17.41
84354;BMP280;74538;43.522;1.516;2024-01-06T09:12:09;99645.47;;;17.40
84354;BMP280;74538;43.522;1.516;2024-01-06T09:14:34;99645.47;;;17.40
84354;BMP280;74538;43.522;1.516;2024-01-06T09:16:59;99654.69;;;17.39
84354;BMP280;74538;43.522;1.516;2024-01-06T09:19:25;99654.69;;;17.39
84354;BMP280;74538;43.522;1.516;2024-01-06T09:21:53;99649.34;;;17.39
84354;BMP280;74538;43.522;1.516;2024-01-06T09:24:19;99657.06;;;17.37
84354;BMP280;74538;43.522;1.516;2024-01-06T09:26:44;99657.06;;;17.37
84354;BMP280;74538;43.522;1.516;2024-01-06T09:29:10;99657.06;;;17.37
84354;BMP280;74538;43.522;1.516;2024-01-06T09:31:35;99669.00;;;17.36
84354;BMP280;74538;43.522;1.516;2024-01-06T09:34:01;99670.19;;;17.35
84354;BMP280;74538;43.522;1.516;2024-01-06T09:36:27;99675.53;;;17.35
84354;BMP280;74538;43.522;1.516;2024-01-06T09:38:53;99674.78;;;17.35
84354;BMP280;74538;43.522;1.516;2024-01-06T09:41:18;99674.78;;;17.35
84354;BMP280;74538;43.522;1.516;2024-01-06T09:43:45;99679.34;;;17.34
84354;BMP280;74538;43.522;1.516;2024-01-06T09:46:15;99689.31;;;17.34
84354;BMP280;74538;43.522;1.516;2024-01-06T09:48:42;99689.31;;;17.34
84354;BMP280;74538;43.522;1.516;2024-01-06T09:51:10;99687.06;;;17.32
84354;BMP280;74538;43.522;1.516;2024-01-06T09:53:42;99695.13;;;17.32
84354;BMP280;74538;43.522;1.516;2024-01-06T09:56:08;99689.00;;;17.32
84354;BMP280;74538;43.522;1.516;2024-01-06T09:58:35;99701.69;;;17.31
84354;BMP280;74538;43.522;1.516;2024-01-06T10:01:02;99699.00;;;17.31
84354;BMP280;74538;43.522;1.516;2024-01-06T10:03:28;99694.81;;;17.30
84354;BMP280;74538;43.522;1.516;2024-01-06T10:05:53;99687.97;;;17.29
84354;BMP280;74538;43.522;1.516;2024-01-06T10:08:19;99700.63;;;17.29
84354;BMP280;74538;43.522;1.516;2024-01-06T10:10:45;99703.28;;;17.29
84354;BMP280;74538;43.522;1.516;2024-01-06T10:13:10;99707.91;;;17.28
84354;BMP280;74538;43.522;1.516;2024-01-06T10:15:36;99701.03;;;17.27
84354;BMP280;74538;43.522;1.516;2024-01-06T10:18:01;99711.00;;;17.27
84354;BMP280;74538;43.522;1.516;2024-01-06T10:20:28;99710.25;;;17.26
84354;BMP280;74538;43.522;1.516;2024-01-06T10:22:54;99704.91;;;17.26
84354;BMP280;74538;43.522;1.516;2024-01-06T10:25:23;99714.13;;;17.25
84354;BMP280;74538;43.522;1.516;2024-01-06T10:27:48;99712.63;;;17.24
84354;BMP280;74538;43.522;1.516;2024-01-06T10:30:14;99718.72;;;17.25
84354;BMP280;74538;43.522;1.516;2024-01-06T10:32:43;99717.97;;;17.24
84354;BMP280;74538;43.522;1.516;2024-01-06T10:35:09;99717.22;;;17.24
84354;BMP280;74538;43.522;1.516;2024-01-06T10:37:36;99711.56;;;17.22
84354;BMP280;74538;43.522;1.516;2024-01-06T10:40:12;99723.00;;;17.22
84354;BMP280;74538;43.522;1.516;2024-01-06T10:42:39;99716.19;;;17.21
84354;BMP280;74538;43.522;1.516;2024-01-06T10:45:13;99720.06;;;17.20
84354;BMP280;74538;43.522;1.516;2024-01-06T10:47:40;99717.38;;;17.20
84354;BMP280;74538;43.522;1.516;2024-01-06T10:50:06;99725.41;;;17.20
84354;BMP280;74538;43.522;1.516;2024-01-06T10:52:33;99722.72;;;17.20
84354;BMP280;74538;43.522;1.516;2024-01-06T10:54:59;99712.03;;;17.20
84354;BMP280;74538;43.522;1.516;2024-01-06T10:57:25;99725.06;;;17.18
84354;BMP280;74538;43.522;1.516;2024-01-06T10:59:53;99714.34;;;17.18
84354;BMP280;74538;43.522;1.516;2024-01-06T11:02:19;99710.50;;;17.19
84354;BMP280;74538;43.522;1.516;2024-01-06T11:04:46;99710.94;;;17.17
84354;BMP280;74538;43.522;1.516;2024-01-06T11:07:13;99712.88;;;17.17
84354;BMP280;74538;43.522;1.516;2024-01-06T11:09:50;99716.28;;;17.17
84354;BMP280;74538;43.522;1.516;2024-01-06T11:12:18;99714.06;;;17.16
84354;BMP280;74538;43.522;1.516;2024-01-06T11:14:44;99713.31;;;17.15
84354;BMP280;74538;43.522;1.516;2024-01-06T11:17:11;99709.91;;;17.15
84354;BMP280;74538;43.522;1.516;2024-01-06T11:22:24;99719.09;;;17.14
84354;BMP280;74538;43.522;1.516;2024-01-06T11:24:51;99717.59;;;17.13
84354;BMP280;74538;43.522;1.516;2024-01-06T11:27:30;99727.56;;;17.12
84354;BMP280;74538;43.522;1.516;2024-01-06T11:29:58;99721.47;;;17.12
84354;BMP280;74538;43.522;1.516;2024-01-06T11:32:33;99720.69;;;17.11
84354;BMP280;74538;43.522;1.516;2024-01-06T11:35:14;99713.13;;;17.10
84354;BMP280;74538;43.522;1.516;2024-01-06T11:42:41;99723.50;;;17.08
84354;BMP280;74538;43.522;1.516;2024-01-06T11:45:07;99719.34;;;17.07
84354;BMP280;74538;43.522;1.516;2024-01-06T11:47:34;99719.81;;;17.05
84354;BMP280;74538;43.522;1.516;2024-01-06T11:50:01;99713.28;;;17.06
84354;BMP280;74538;43.522;1.516;2024-01-06T11:52:30;99717.88;;;17.06
84354;BMP280;74538;43.522;1.516;2024-01-06T11:54:56;99709.09;;;17.05
84354;BMP280;74538;43.522;1.516;2024-01-06T11:57:22;99711.03;;;17.05
84354;BMP280;74538;43.522;1.516;2024-01-06T11:59:48;99705.69;;;17.05
84354;BMP280;74538;43.522;1.516;2024-01-06T12:02:17;99711.03;;;17.05
84354;BMP280;74538;43.522;1.516;2024-01-06T12:04:48;99704.16;;;17.04
84354;BMP280;74538;43.522;1.516;2024-01-06T12:07:15;99706.81;;;17.04
84354;BMP280;74538;43.522;1.516;2024-01-06T12:09:40;99704.16;;;17.04
84354;BMP280;74538;43.522;1.516;2024-01-06T12:12:06;99703.41;;;17.03
84354;BMP280;74538;43.522;1.516;2024-01-06T12:14:32;99706.50;;;17.02
84354;BMP280;74538;43.522;1.516;2024-01-06T12:17:00;99714.53;;;17.02
84354;BMP280;74538;43.522;1.516;2024-01-06T12:19:30;99710.38;;;17.01
84354;BMP280;74538;43.522;1.516;2024-01-06T12:21:56;99705.03;;;17.01
84354;BMP280;74538;43.522;1.516;2024-01-06T12:24:22;99703.53;;;17.00
84354;BMP280;74538;43.522;1.516;2024-01-06T12:26:47;99703.53;;;17.00
84354;BMP280;74538;43.522;1.516;2024-01-06T12:29:14;99711.56;;;17.00
84354;BMP280;74538;43.522;1.516;2024-01-06T12:31:40;99712.75;;;16.99
84354;BMP280;74538;43.522;1.516;2024-01-06T12:34:06;99710.06;;;16.99
84354;BMP280;74538;43.522;1.516;2024-01-06T12:36:34;99703.22;;;16.98
84354;BMP280;74538;43.522;1.516;2024-01-06T12:39:00;99703.22;;;16.98
84354;BMP280;74538;43.522;1.516;2024-01-06T12:41:27;99699.81;;;16.97
84354;BMP280;74538;43.522;1.516;2024-01-06T12:43:53;99704.38;;;16.97
84354;BMP280;74538;43.522;1.516;2024-01-06T12:46:18;99699.03;;;16.97
84354;BMP280;74538;43.522;1.516;2024-01-06T12:48:44;99702.91;;;16.96
84354;BMP280;74538;43.522;1.516;2024-01-06T12:51:09;99702.91;;;16.96
84354;BMP280;74538;43.522;1.516;2024-01-06T12:53:35;99697.56;;;16.96
84354;BMP280;74538;43.522;1.516;2024-01-06T12:56:01;99699.50;;;16.95
84354;BMP280;74538;43.522;1.516;2024-01-06T12:58:26;99701.41;;;16.95
84354;BMP280;74538;43.522;1.516;2024-01-06T13:00:51;99688.47;;;16.93
84354;BMP280;74538;43.522;1.516;2024-01-06T13:03:17;99704.97;;;16.92
84354;BMP280;74538;43.522;1.516;2024-01-06T13:05:44;99702.28;;;16.92
84354;BMP280;74538;43.522;1.516;2024-01-06T13:08:09;99696.94;;;16.92
84354;BMP280;74538;43.522;1.516;2024-01-06T13:10:35;99700.81;;;16.91
84354;BMP280;74538;43.522;1.516;2024-01-06T13:13:02;99695.47;;;16.91
84354;BMP280;74538;43.522;1.516;2024-01-06T13:15:27;99694.72;;;16.90
84354;BMP280;74538;43.522;1.516;2024-01-06T13:17:52;99700.81;;;16.91
84354;BMP280;74538;43.522;1.516;2024-01-06T13:20:18;99703.13;;;16.89
84354;BMP280;74538;43.522;1.516;2024-01-06T13:22:43;99710.00;;;16.90
84354;BMP280;74538;43.522;1.516;2024-01-06T13:25:09;99701.66;;;16.88
84354;BMP280;74538;43.522;1.516;2024-01-06T13:27:34;99696.28;;;16.88
84354;BMP280;74538;43.522;1.516;2024-01-06T13:30:00;99700.16;;;16.87
84354;BMP280;74538;43.522;1.516;2024-01-06T13:32:25;99707.44;;;16.86
84354;BMP280;74538;43.522;1.516;2024-01-06T13:34:55;99700.59;;;16.85
84354;BMP280;74538;43.522;1.516;2024-01-06T13:37:27;99700.59;;;16.85
84354;BMP280;74538;43.522;1.516;2024-01-06T13:39:52;99696.44;;;16.84
84354;BMP280;74538;43.522;1.516;2024-01-06T13:42:18;99694.50;;;16.85
84354;BMP280;74538;43.522;1.516;2024-01-06T13:44:46;99702.97;;;16.83
84354;BMP280;74538;43.522;1.516;2024-01-06T13:47:13;99714.41;;;16.84
84354;BMP280;74538;43.522;1.516;2024-01-06T13:49:39;99698.78;;;16.82
84354;BMP280;74538;43.522;1.516;2024-01-06T13:52:04;99711.41;;;16.81
84354;BMP280;74538;43.522;1.516;2024-01-06T13:54:30;99701.91;;;16.80
84354;BMP280;74538;43.522;1.516;2024-01-06T13:56:55;99710.66;;;16.81
84354;BMP280;74538;43.522;1.516;2024-01-06T13:59:21;99703.38;;;16.81
84354;BMP280;74538;43.522;1.516;2024-01-06T14:01:47;99702.63;;;16.81
84354;BMP280;74538;43.522;1.516;2024-01-06T14:04:12;99700.41;;;16.79
84354;BMP280;74538;43.522;1.516;2024-01-06T14:06:38;99703.09;;;16.79
84354;BMP280;74538;43.522;1.516;2024-01-06T14:09:05;99706.94;;;16.78